sensor_id;sensor_type;location;lat;lon;timestamp;pressure;altitude;pressure_sealevel;temperature;humidity
16664;BME280;8445;51.270;9.434;2022-08-21T00:00:09;99583.94;;;16.95;65.42
16664;BME280;8445;51.270;9.434;2022-08-21T00:02:46;99585.09;;;16.92;65.43
16664;BME280;8445;51.270;9.434;2022-08-21T00:05:14;99579.00;;;16.82;64.84
16664;BME280;8445;51.270;9.434;2022-08-21T00:07:40;99579.28;;;16.79;65.52
16664;BME280;8445;51.270;9.434;2022-08-21T00:10:06;99575.09;;;16.76;65.29
16664;BME280;8445;51.270;9.434;2022-08-21T00:12:32;99569.50;;;16.69;65.27
16664;BME280;8445;51.270;9.434;2022-08-21T00:15:05;99571.50;;;16.67;65.62
16664;BME280;8445;51.270;9.434;2022-08-21T00:17:31;99568.31;;;16.64;65.56
16664;BME280;8445;51.270;9.434;2022-08-21T00:19:57;99569.81;;;16.66;66.26
16664;BME280;8445;51.270;9.434;2022-08-21T00:22:25;99565.84;;;16.70;67.19
16664;BME280;8445;51.270;9.434;2022-08-21T00:24:51;99563.34;;;16.69;68.08
16664;BME280;8445;51.270;9.434;2022-08-21T00:27:17;99565.47;;;16.65;66.82
16664;BME280;8445;51.270;9.434;2022-08-21T00:29:46;99572.41;;;16.58;66.26
16664;BME280;8445;51.270;9.434;2022-08-21T00:32:12;99570.63;;;16.49;66.13
16664;BME280;8445;51.270;9.434;2022-08-21T00:34:38;99574.22;;;16.39;65.99
16664;BME280;8445;51.270;9.434;2022-08-21T00:37:04;99565.44;;;16.29;65.82
16664;BME280;8445;51.270;9.434;2022-08-21T00:39:30;99563.66;;;16.20;65.92
16664;BME280;8445;51.270;9.434;2022-08-21T00:41:55;99553.56;;;16.13;66.11
16664;BME280;8445;51.270;9.434;2022-08-21T00:44:21;99557.41;;;16.01;66.44
16664;BME280;8445;51.270;9.434;2022-08-21T00:46:47;99561.94;;;15.91;66.76
16664;BME280;8445;51.270;9.434;2022-08-21T00:49:14;99548.50;;;15.82;66.57
16664;BME280;8445;51.270;9.434;2022-08-21T00:51:54;99553.41;;;15.87;68.32
16664;BME280;8445;51.270;9.434;2022-08-21T00:54:24;99546.81;;;15.71;67.31
16664;BME280;8445;51.270;9.434;2022-08-21T00:56:57;99550.34;;;15.62;67.17
16664;BME280;8445;51.270;9.434;2022-08-21T00:59:25;99554.63;;;15.55;66.83
16664;BME280;8445;51.270;9.434;2022-08-21T01:01:52;99554.34;;;15.48;66.85
16664;BME280;8445;51.270;9.434;2022-08-21T01:04:18;99549.00;;;15.48;67.07
16664;BME280;8445;51.270;9.434;2022-08-21T01:06:44;99547.47;;;15.36;67.39
16664;BME280;8445;51.270;9.434;2022-08-21T01:09:11;99550.75;;;15.30;67.78
16664;BME280;8445;51.270;9.434;2022-08-21T01:11:37;99546.09;;;15.32;68.25
16664;BME280;8445;51.270;9.434;2022-08-21T01:14:03;99547.34;;;15.37;70.09
16664;BME280;8445;51.270;9.434;2022-08-21T01:16:29;99552.53;;;15.39;68.66
16664;BME280;8445;51.270;9.434;2022-08-21T01:18:56;99552.97;;;15.34;68.66
16664;BME280;8445;51.270;9.434;2022-08-21T01:21:25;99552.44;;;15.31;68.42
16664;BME280;8445;51.270;9.434;2022-08-21T01:23:54;99550.88;;;15.28;68.09
16664;BME280;8445;51.270;9.434;2022-08-21T01:26:31;99563.38;;;15.27;69.27
16664;BME280;8445;51.270;9.434;2022-08-21T01:29:05;99556.94;;;15.20;69.39
16664;BME280;8445;51.270;9.434;2022-08-21T01:31:33;99560.41;;;15.21;69.06
16664;BME280;8445;51.270;9.434;2022-08-21T01:33:59;99559.44;;;15.22;68.74
16664;BME280;8445;51.270;9.434;2022-08-21T01:36:26;99561.41;;;15.20;68.60
16664;BME280;8445;51.270;9.434;2022-08-21T01:38:53;99567.72;;;15.19;68.54
16664;BME280;8445;51.270;9.434;2022-08-21T01:41:21;99561.97;;;15.14;68.37
16664;BME280;8445;51.270;9.434;2022-08-21T01:43:49;99572.38;;;15.07;67.99
16664;BME280;8445;51.270;9.434;2022-08-21T01:46:15;99565.22;;;14.97;67.79
16664;BME280;8445;51.270;9.434;2022-08-21T01:48:43;99562.56;;;14.88;67.99
16664;BME280;8445;51.270;9.434;2022-08-21T01:51:09;99555.56;;;14.87;68.83
16664;BME280;8445;51.270;9.434;2022-08-21T01:53:36;99558.50;;;14.84;68.58
16664;BME280;8445;51.270;9.434;2022-08-21T01:56:07;99561.00;;;14.85;68.31
16664;BME280;8445;51.270;9.434;2022-08-21T01:58:34;99556.66;;;14.74;67.99
16664;BME280;8445;51.270;9.434;2022-08-21T02:01:01;99557.19;;;14.68;68.21
16664;BME280;8445;51.270;9.434;2022-08-21T02:03:29;99554.69;;;14.66;68.08
16664;BME280;8445;51.270;9.434;2022-08-21T02:05:55;99550.59;;;14.62;68.43
16664;BME280;8445;51.270;9.434;2022-08-21T02:08:22;99549.19;;;14.58;68.49
16664;BME280;8445;51.270;9.434;2022-08-21T02:10:50;99553.81;;;14.56;68.52
16664;BME280;8445;51.270;9.434;2022-08-21T02:13:17;99554.09;;;14.53;68.50
16664;BME280;8445;51.270;9.434;2022-08-21T02:15:44;99548.06;;;14.51;68.43
16664;BME280;8445;51.270;9.434;2022-08-21T02:18:11;99542.03;;;14.49;68.76
16664;BME280;8445;51.270;9.434;2022-08-21T02:20:49;99533.34;;;14.47;68.50
16664;BME280;8445;51.270;9.434;2022-08-21T02:23:15;99532.91;;;14.42;68.69
16664;BME280;8445;51.270;9.434;2022-08-21T02:25:42;99522.13;;;14.33;68.62
16664;BME280;8445;51.270;9.434;2022-08-21T02:28:13;99530.25;;;14.32;69.07
16664;BME280;8445;51.270;9.434;2022-08-21T02:30:46;99522.66;;;14.27;69.12
16664;BME280;8445;51.270;9.434;2022-08-21T02:33:14;99532.16;;;14.20;68.76
16664;BME280;8445;51.270;9.434;2022-08-21T02:35:42;99532.72;;;14.14;68.78
16664;BME280;8445;51.270;9.434;2022-08-21T02:38:13;99530.63;;;14.07;68.76
16664;BME280;8445;51.270;9.434;2022-08-21T02:40:43;99529.63;;;14.08;70.10
16664;BME280;8445;51.270;9.434;2022-08-21T02:43:10;99532.31;;;14.08;69.39
16664;BME280;8445;51.270;9.434;2022-08-21T02:45:37;99527.25;;;14.05;69.22
16664;BME280;8445;51.270;9.434;2022-08-21T02:48:10;99536.91;;;14.06;70.64
16664;BME280;8445;51.270;9.434;2022-08-21T02:50:45;99536.38;;;14.13;71.20
16664;BME280;8445;51.270;9.434;2022-08-21T02:53:14;99535.66;;;14.11;69.82
16664;BME280;8445;51.270;9.434;2022-08-21T02:55:44;99532.72;;;14.14;69.74
16664;BME280;8445;51.270;9.434;2022-08-21T02:58:11;99525.72;;;14.13;69.42
16664;BME280;8445;51.270;9.434;2022-08-21T03:00:38;99521.38;;;14.12;69.77
16664;BME280;8445;51.270;9.434;2022-08-21T03:03:05;99524.88;;;14.12;69.60
16664;BME280;8445;51.270;9.434;2022-08-21T03:05:35;99526.00;;;14.10;69.61
16664;BME280;8445;51.270;9.434;2022-08-21T03:08:05;99520.53;;;14.01;69.57
16664;BME280;8445;51.270;9.434;2022-08-21T03:10:36;99520.91;;;13.97;69.90
16664;BME280;8445;51.270;9.434;2022-08-21T03:13:03;99520.06;;;13.96;69.86
16664;BME280;8445;51.270;9.434;2022-08-21T03:15:29;99521.88;;;13.96;69.94
16664;BME280;8445;51.270;9.434;2022-08-21T03:17:55;99525.94;;;13.90;69.56
16664;BME280;8445;51.270;9.434;2022-08-21T03:20:26;99527.19;;;13.86;69.75
16664;BME280;8445;51.270;9.434;2022-08-21T03:22:53;99523.19;;;13.70;69.47
16664;BME280;8445;51.270;9.434;2022-08-21T03:25:26;99522.88;;;13.63;70.15
16664;BME280;8445;51.270;9.434;2022-08-21T03:27:53;99521.03;;;13.54;69.56
16664;BME280;8445;51.270;9.434;2022-08-21T03:30:20;99530.22;;;13.50;69.99
16664;BME280;8445;51.270;9.434;2022-08-21T03:32:50;99539.19;;;13.49;69.90
16664;BME280;8445;51.270;9.434;2022-08-21T03:35:17;99535.25;;;13.43;69.60
16664;BME280;8445;51.270;9.434;2022-08-21T03:37:44;99541.53;;;13.42;69.86
16664;BME280;8445;51.270;9.434;2022-08-21T03:40:12;99535.47;;;13.40;70.13
16664;BME280;8445;51.270;9.434;2022-08-21T03:42:39;99542.97;;;13.46;70.24
16664;BME280;8445;51.270;9.434;2022-08-21T03:45:06;99545.22;;;13.51;70.25
16664;BME280;8445;51.270;9.434;2022-08-21T03:47:32;99542.13;;;13.56;70.57
16664;BME280;8445;51.270;9.434;2022-08-21T03:49:58;99546.22;;;13.60;70.49
16664;BME280;8445;51.270;9.434;2022-08-21T03:52:25;99543.44;;;13.61;70.77
16664;BME280;8445;51.270;9.434;2022-08-21T03:54:51;99546.94;;;13.62;70.63
16664;BME280;8445;51.270;9.434;2022-08-21T03:57:17;99545.41;;;13.59;70.29
16664;BME280;8445;51.270;9.434;2022-08-21T03:59:44;99541.06;;;13.58;70.27
16664;BME280;8445;51.270;9.434;2022-08-21T04:02:10;99552.78;;;13.56;70.48
16664;BME280;8445;51.270;9.434;2022-08-21T04:04:39;99549.84;;;13.59;70.64
16664;BME280;8445;51.270;9.434;2022-08-21T04:07:05;99556.59;;;13.63;70.83
16664;BME280;8445;51.270;9.434;2022-08-21T04:09:30;99554.06;;;13.61;70.34
16664;BME280;8445;51.270;9.434;2022-08-21T04:11:58;99560.75;;;13.56;70.67
16664;BME280;8445;51.270;9.434;2022-08-21T04:14:25;99568.03;;;13.54;70.76
16664;BME280;8445;51.270;9.434;2022-08-21T04:16:51;99565.75;;;13.49;70.75
16664;BME280;8445;51.270;9.434;2022-08-21T04:19:16;99572.44;;;13.43;70.56
16664;BME280;8445;51.270;9.434;2022-08-21T04:21:43;99575.59;;;13.37;70.47
16664;BME280;8445;51.270;9.434;2022-08-21T04:24:10;99577.78;;;13.32;70.51
16664;BME280;8445;51.270;9.434;2022-08-21T04:26:38;99576.38;;;13.28;70.63
16664;BME280;8445;51.270;9.434;2022-08-21T04:29:05;99571.75;;;13.30;70.76
16664;BME280;8445;51.270;9.434;2022-08-21T04:31:34;99577.34;;;13.27;70.69
16664;BME280;8445;51.270;9.434;2022-08-21T04:34:00;99573.25;;;13.23;71.04
16664;BME280;8445;51.270;9.434;2022-08-21T04:36:26;99566.97;;;13.24;71.30
16664;BME280;8445;51.270;9.434;2022-08-21T04:38:52;99571.88;;;13.28;71.25
16664;BME280;8445;51.270;9.434;2022-08-21T04:41:18;99578.75;;;13.31;71.37
16664;BME280;8445;51.270;9.434;2022-08-21T04:43:44;99586.34;;;13.35;71.43
16664;BME280;8445;51.270;9.434;2022-08-21T04:46:10;99585.59;;;13.45;71.46
16664;BME280;8445;51.270;9.434;2022-08-21T04:48:36;99583.69;;;13.57;71.43
16664;BME280;8445;51.270;9.434;2022-08-21T04:51:15;99583.25;;;13.73;72.27
16664;BME280;8445;51.270;9.434;2022-08-21T04:56:30;99597.00;;;14.19;73.99
16664;BME280;8445;51.270;9.434;2022-08-21T04:59:02;99586.16;;;14.42;72.90
16664;BME280;8445;51.270;9.434;2022-08-21T05:01:35;99594.38;;;14.70;73.05
16664;BME280;8445;51.270;9.434;2022-08-21T05:04:05;99591.97;;;14.86;72.82
16664;BME280;8445;51.270;9.434;2022-08-21T05:06:36;99590.16;;;14.96;72.50
16664;BME280;8445;51.270;9.434;2022-08-21T05:09:05;99593.97;;;15.04;72.54
16664;BME280;8445;51.270;9.434;2022-08-21T05:11:32;99595.34;;;15.08;72.27
16664;BME280;8445;51.270;9.434;2022-08-21T05:13:58;99590.72;;;15.10;72.24
16664;BME280;8445;51.270;9.434;2022-08-21T05:16:25;99599.56;;;15.10;72.10
16664;BME280;8445;51.270;9.434;2022-08-21T05:18:50;99595.34;;;15.18;71.92
16664;BME280;8445;51.270;9.434;2022-08-21T05:21:17;99599.28;;;15.23;71.82
16664;BME280;8445;51.270;9.434;2022-08-21T05:23:42;99599.28;;;15.23;71.82
16664;BME280;8445;51.270;9.434;2022-08-21T05:26:09;99605.16;;;15.27;71.78
16664;BME280;8445;51.270;9.434;2022-08-21T05:28:35;99600.78;;;15.36;72.19
16664;BME280;8445;51.270;9.434;2022-08-21T05:31:01;99600.78;;;15.46;71.95
16664;BME280;8445;51.270;9.434;2022-08-21T05:33:27;99595.03;;;15.50;72.08
16664;BME280;8445;51.270;9.434;2022-08-21T05:35:54;99592.78;;;15.55;72.05
16664;BME280;8445;51.270;9.434;2022-08-21T05:38:23;99597.53;;;15.62;71.99
16664;BME280;8445;51.270;9.434;2022-08-21T05:40:49;99603.00;;;15.70;72.19
16664;BME280;8445;51.270;9.434;2022-08-21T05:43:15;99601.13;;;15.80;71.88
16664;BME280;8445;51.270;9.434;2022-08-21T05:45:42;99602.13;;;15.89;71.84
16664;BME280;8445;51.270;9.434;2022-08-21T05:48:14;99608.97;;;16.02;73.15
16664;BME280;8445;51.270;9.434;2022-08-21T05:50:42;99614.13;;;16.13;72.41
16664;BME280;8445;51.270;9.434;2022-08-21T05:53:09;99608.81;;;16.31;72.58
16664;BME280;8445;51.270;9.434;2022-08-21T05:55:37;99611.38;;;16.51;72.58
16664;BME280;8445;51.270;9.434;2022-08-21T05:58:03;99615.53;;;16.63;72.33
16664;BME280;8445;51.270;9.434;2022-08-21T06:00:29;99615.00;;;16.78;72.31
16664;BME280;8445;51.270;9.434;2022-08-21T06:02:55;99615.47;;;16.91;72.34
16664;BME280;8445;51.270;9.434;2022-08-21T06:05:21;99609.94;;;17.02;73.17
16664;BME280;8445;51.270;9.434;2022-08-21T06:07:47;99612.97;;;17.26;72.84
16664;BME280;8445;51.270;9.434;2022-08-21T06:10:13;99609.97;;;17.47;72.38
16664;BME280;8445;51.270;9.434;2022-08-21T06:12:39;99610.59;;;17.67;72.94
16664;BME280;8445;51.270;9.434;2022-08-21T06:15:05;99605.88;;;17.87;72.84
16664;BME280;8445;51.270;9.434;2022-08-21T06:17:31;99611.53;;;18.11;73.24
16664;BME280;8445;51.270;9.434;2022-08-21T06:19:57;99610.16;;;18.41;72.82
16664;BME280;8445;51.270;9.434;2022-08-21T06:22:23;99608.22;;;18.60;72.45
16664;BME280;8445;51.270;9.434;2022-08-21T06:24:49;99610.28;;;18.83;71.95
16664;BME280;8445;51.270;9.434;2022-08-21T06:27:15;99610.00;;;19.10;71.25
16664;BME280;8445;51.270;9.434;2022-08-21T06:29:41;99612.03;;;19.33;70.97
16664;BME280;8445;51.270;9.434;2022-08-21T06:32:10;99617.38;;;19.50;70.82
16664;BME280;8445;51.270;9.434;2022-08-21T06:34:38;99612.16;;;19.65;70.42
16664;BME280;8445;51.270;9.434;2022-08-21T06:37:05;99607.28;;;19.77;69.87
16664;BME280;8445;51.270;9.434;2022-08-21T06:39:32;99601.91;;;19.93;69.92
16664;BME280;8445;51.270;9.434;2022-08-21T06:41:58;99606.03;;;20.12;69.42
16664;BME280;8445;51.270;9.434;2022-08-21T06:44:29;99609.16;;;20.24;69.30
16664;BME280;8445;51.270;9.434;2022-08-21T06:46:55;99602.53;;;20.43;69.27
16664;BME280;8445;51.270;9.434;2022-08-21T06:49:22;99602.91;;;20.64;69.15
16664;BME280;8445;51.270;9.434;2022-08-21T06:51:48;99601.69;;;20.83;68.62
16664;BME280;8445;51.270;9.434;2022-08-21T06:54:14;99602.75;;;20.97;68.26
16664;BME280;8445;51.270;9.434;2022-08-21T06:56:40;99596.41;;;21.13;68.32
16664;BME280;8445;51.270;9.434;2022-08-21T06:59:06;99592.06;;;21.27;67.90
16664;BME280;8445;51.270;9.434;2022-08-21T07:01:32;99586.34;;;21.30;67.62
16664;BME280;8445;51.270;9.434;2022-08-21T07:03:58;99595.72;;;21.34;67.53
16664;BME280;8445;51.270;9.434;2022-08-21T07:06:24;99600.09;;;21.35;67.35
16664;BME280;8445;51.270;9.434;2022-08-21T07:08:50;99597.22;;;21.37;67.50
16664;BME280;8445;51.270;9.434;2022-08-21T07:11:22;99592.50;;;21.39;67.50
16664;BME280;8445;51.270;9.434;2022-08-21T07:13:55;99597.75;;;21.32;67.46
16664;BME280;8445;51.270;9.434;2022-08-21T07:16:23;99588.38;;;21.28;67.41
16664;BME280;8445;51.270;9.434;2022-08-21T07:18:49;99579.19;;;21.22;67.80
16664;BME280;8445;51.270;9.434;2022-08-21T07:21:16;99584.47;;;21.15;67.44
16664;BME280;8445;51.270;9.434;2022-08-21T07:23:50;99577.78;;;21.11;67.55
16664;BME280;8445;51.270;9.434;2022-08-21T07:26:20;99580.88;;;21.00;67.61
16664;BME280;8445;51.270;9.434;2022-08-21T07:28:49;99582.78;;;20.91;67.68
16664;BME280;8445;51.270;9.434;2022-08-21T07:31:21;99577.13;;;20.86;67.63
16664;BME280;8445;51.270;9.434;2022-08-21T07:33:47;99575.81;;;20.82;67.60
16664;BME280;8445;51.270;9.434;2022-08-21T07:36:13;99572.94;;;20.75;67.75
16664;BME280;8445;51.270;9.434;2022-08-21T07:38:40;99576.19;;;20.70;67.92
16664;BME280;8445;51.270;9.434;2022-08-21T07:41:16;99574.16;;;20.72;68.10
16664;BME280;8445;51.270;9.434;2022-08-21T07:43:44;99575.34;;;20.70;68.28
16664;BME280;8445;51.270;9.434;2022-08-21T07:46:11;99572.28;;;20.73;68.02
16664;BME280;8445;51.270;9.434;2022-08-21T07:48:37;99565.91;;;20.74;68.22
16664;BME280;8445;51.270;9.434;2022-08-21T07:51:08;99568.91;;;20.79;68.32
16664;BME280;8445;51.270;9.434;2022-08-21T07:53:36;99559.84;;;20.80;67.93
16664;BME280;8445;51.270;9.434;2022-08-21T07:56:03;99561.16;;;20.84;67.90
16664;BME280;8445;51.270;9.434;2022-08-21T07:58:31;99557.09;;;20.88;67.95
16664;BME280;8445;51.270;9.434;2022-08-21T08:00:57;99561.88;;;21.01;67.57
16664;BME280;8445;51.270;9.434;2022-08-21T08:03:24;99556.63;;;21.08;67.64
16664;BME280;8445;51.270;9.434;2022-08-21T08:05:50;99552.66;;;21.19;67.24
16664;BME280;8445;51.270;9.434;2022-08-21T08:08:17;99549.88;;;21.27;67.03
16664;BME280;8445;51.270;9.434;2022-08-21T08:10:44;99558.16;;;21.41;66.74
16664;BME280;8445;51.270;9.434;2022-08-21T08:13:11;99554.00;;;21.53;65.99
16664;BME280;8445;51.270;9.434;2022-08-21T08:15:37;99552.66;;;21.72;66.47
16664;BME280;8445;51.270;9.434;2022-08-21T08:18:03;99554.50;;;21.87;66.67
16664;BME280;8445;51.270;9.434;2022-08-21T08:20:29;99555.53;;;22.01;66.34
16664;BME280;8445;51.270;9.434;2022-08-21T08:22:56;99554.94;;;22.20;66.50
16664;BME280;8445;51.270;9.434;2022-08-21T08:25:23;99547.00;;;22.49;66.46
16664;BME280;8445;51.270;9.434;2022-08-21T08:27:50;99549.25;;;22.67;66.17
16664;BME280;8445;51.270;9.434;2022-08-21T08:30:19;99538.16;;;22.77;66.60
16664;BME280;8445;51.270;9.434;2022-08-21T08:32:47;99544.25;;;23.07;66.70
16664;BME280;8445;51.270;9.434;2022-08-21T08:35:14;99537.72;;;23.45;65.25
16664;BME280;8445;51.270;9.434;2022-08-21T08:37:41;99528.97;;;23.78;65.20
16664;BME280;8445;51.270;9.434;2022-08-21T08:42:56;99523.84;;;24.39;63.73
16664;BME280;8445;51.270;9.434;2022-08-21T08:46:01;99525.34;;;24.62;57.20
16664;BME280;8445;51.270;9.434;2022-08-21T08:48:55;99527.44;;;24.66;54.30
16664;BME280;8445;51.270;9.434;2022-08-21T08:51:46;99530.38;;;24.71;53.33
16664;BME280;8445;51.270;9.434;2022-08-21T08:54:51;99534.28;;;24.69;59.56
16664;BME280;8445;51.270;9.434;2022-08-21T08:57:23;99536.97;;;24.42;60.16
16664;BME280;8445;51.270;9.434;2022-08-21T08:59:54;99533.34;;;24.28;60.90
16664;BME280;8445;51.270;9.434;2022-08-21T09:02:24;99532.72;;;24.19;61.91
16664;BME280;8445;51.270;9.434;2022-08-21T09:04:51;99529.78;;;24.21;61.97
16664;BME280;8445;51.270;9.434;2022-08-21T09:07:37;99526.09;;;24.28;58.42
16664;BME280;8445;51.270;9.434;2022-08-21T09:10:18;99522.59;;;24.41;62.47
16664;BME280;8445;51.270;9.434;2022-08-21T09:13:09;99518.84;;;24.42;62.25
16664;BME280;8445;51.270;9.434;2022-08-21T09:16:08;99512.63;;;24.55;58.15
16664;BME280;8445;51.270;9.434;2022-08-21T09:19:07;99524.28;;;24.56;50.83
16664;BME280;8445;51.270;9.434;2022-08-21T09:21:52;99517.84;;;24.57;57.40
16664;BME280;8445;51.270;9.434;2022-08-21T09:27:15;99520.81;;;24.76;59.41
16664;BME280;8445;51.270;9.434;2022-08-21T09:29:46;99519.97;;;24.82;60.43
16664;BME280;8445;51.270;9.434;2022-08-21T09:32:24;99518.97;;;24.90;60.43
16664;BME280;8445;51.270;9.434;2022-08-21T09:35:21;99515.41;;;25.02;52.01
16664;BME280;8445;51.270;9.434;2022-08-21T09:38:06;99512.09;;;25.00;59.42
16664;BME280;8445;51.270;9.434;2022-08-21T09:40:46;99519.59;;;25.12;58.24
16664;BME280;8445;51.270;9.434;2022-08-21T09:43:30;99515.84;;;25.13;58.61
16664;BME280;8445;51.270;9.434;2022-08-21T09:46:11;99508.13;;;25.10;57.75
16664;BME280;8445;51.270;9.434;2022-08-21T09:48:46;99505.84;;;25.07;55.69
16664;BME280;8445;51.270;9.434;2022-08-21T09:51:21;99505.00;;;25.13;57.66
16664;BME280;8445;51.270;9.434;2022-08-21T09:56:57;99499.75;;;25.38;51.78
16664;BME280;8445;51.270;9.434;2022-08-21T09:59:45;99513.69;;;25.42;57.60
16664;BME280;8445;51.270;9.434;2022-08-21T10:02:31;99506.16;;;25.78;54.71
16664;BME280;8445;51.270;9.434;2022-08-21T10:05:35;99501.72;;;25.90;57.24
16664;BME280;8445;51.270;9.434;2022-08-21T10:07:54;99499.75;;;26.17;57.40
16664;BME280;8445;51.270;9.434;2022-08-21T10:10:31;99494.38;;;26.49;55.56
16664;BME280;8445;51.270;9.434;2022-08-21T10:13:32;99495.75;;;26.91;54.51
16664;BME280;8445;51.270;9.434;2022-08-21T10:22:07;99487.66;;;27.54;51.36
16664;BME280;8445;51.270;9.434;2022-08-21T10:25:00;99480.44;;;27.22;52.50
16664;BME280;8445;51.270;9.434;2022-08-21T10:30:21;99479.38;;;26.72;44.46
16664;BME280;8445;51.270;9.434;2022-08-21T10:33:03;99474.63;;;26.68;54.39
16664;BME280;8445;51.270;9.434;2022-08-21T10:36:16;99475.75;;;26.85;40.16
16664;BME280;8445;51.270;9.434;2022-08-21T10:45:07;99474.50;;;26.88;41.55
16664;BME280;8445;51.270;9.434;2022-08-21T10:47:41;99472.72;;;27.00;45.36
16664;BME280;8445;51.270;9.434;2022-08-21T10:56:10;99462.44;;;27.28;50.19
16664;BME280;8445;51.270;9.434;2022-08-21T10:58:47;99457.94;;;27.15;49.51
16664;BME280;8445;51.270;9.434;2022-08-21T11:01:29;99460.19;;;26.99;46.76
16664;BME280;8445;51.270;9.434;2022-08-21T11:04:18;99457.19;;;26.82;51.09
16664;BME280;8445;51.270;9.434;2022-08-21T11:07:06;99453.16;;;26.91;41.87
16664;BME280;8445;51.270;9.434;2022-08-21T11:09:45;99455.91;;;27.10;47.65
16664;BME280;8445;51.270;9.434;2022-08-21T11:12:28;99448.56;;;27.36;44.00
16664;BME280;8445;51.270;9.434;2022-08-21T11:17:54;99448.75;;;27.90;49.81
16664;BME280;8445;51.270;9.434;2022-08-21T11:21:19;99448.69;;;28.28;47.63
16664;BME280;8445;51.270;9.434;2022-08-21T11:23:31;99441.84;;;28.79;50.05
16664;BME280;8445;51.270;9.434;2022-08-21T11:26:06;99444.91;;;29.19;51.44
16664;BME280;8445;51.270;9.434;2022-08-21T11:28:41;99436.13;;;29.52;50.03
16664;BME280;8445;51.270;9.434;2022-08-21T11:32:26;99446.25;;;30.10;44.19
16664;BME280;8445;51.270;9.434;2022-08-21T11:38:35;99440.88;;;30.44;36.71
16664;BME280;8445;51.270;9.434;2022-08-21T11:41:17;99438.13;;;30.27;45.29
16664;BME280;8445;51.270;9.434;2022-08-21T11:50:03;99441.31;;;28.70;35.67
16664;BME280;8445;51.270;9.434;2022-08-21T11:52:38;99439.06;;;28.55;38.01
16664;BME280;8445;51.270;9.434;2022-08-21T11:58:08;99423.47;;;28.87;43.13
16664;BME280;8445;51.270;9.434;2022-08-21T12:01:05;99428.44;;;29.25;40.18
16664;BME280;8445;51.270;9.434;2022-08-21T12:03:40;99429.94;;;29.57;47.98
16664;BME280;8445;51.270;9.434;2022-08-21T12:06:12;99428.81;;;29.82;43.74
16664;BME280;8445;51.270;9.434;2022-08-21T12:08:45;99428.34;;;29.85;46.58
16664;BME280;8445;51.270;9.434;2022-08-21T12:16:41;99428.41;;;29.61;40.41
16664;BME280;8445;51.270;9.434;2022-08-21T12:19:11;99427.97;;;29.28;46.00
16664;BME280;8445;51.270;9.434;2022-08-21T12:22:07;99433.22;;;28.82;35.48
16664;BME280;8445;51.270;9.434;2022-08-21T12:24:47;99429.34;;;28.48;41.00
16664;BME280;8445;51.270;9.434;2022-08-21T12:29:51;99422.31;;;27.98;45.39
16664;BME280;8445;51.270;9.434;2022-08-21T12:32:24;99427.19;;;28.07;46.32
16664;BME280;8445;51.270;9.434;2022-08-21T12:35:17;99419.25;;;28.24;42.59
16664;BME280;8445;51.270;9.434;2022-08-21T12:38:04;99421.97;;;28.24;43.21
16664;BME280;8445;51.270;9.434;2022-08-21T12:40:47;99417.94;;;28.15;41.92
16664;BME280;8445;51.270;9.434;2022-08-21T12:43:28;99410.72;;;28.21;42.55
16664;BME280;8445;51.270;9.434;2022-08-21T12:45:56;99418.91;;;28.33;46.09
16664;BME280;8445;51.270;9.434;2022-08-21T12:48:59;99416.09;;;28.51;38.46
16664;BME280;8445;51.270;9.434;2022-08-21T12:51:57;99413.28;;;28.70;35.14
16664;BME280;8445;51.270;9.434;2022-08-21T12:54:37;99411.66;;;28.93;44.43
16664;BME280;8445;51.270;9.434;2022-08-21T12:57:16;99402.16;;;29.31;45.78
16664;BME280;8445;51.270;9.434;2022-08-21T12:59:45;99400.75;;;29.40;44.46
16664;BME280;8445;51.270;9.434;2022-08-21T13:02:32;99401.97;;;29.62;42.16
16664;BME280;8445;51.270;9.434;2022-08-21T13:05:11;99405.31;;;29.64;43.93
16664;BME280;8445;51.270;9.434;2022-08-21T13:07:46;99406.06;;;29.47;41.05
16664;BME280;8445;51.270;9.434;2022-08-21T13:10:32;99404.41;;;29.34;34.37
16664;BME280;8445;51.270;9.434;2022-08-21T13:13:04;99397.88;;;29.23;44.10
16664;BME280;8445;51.270;9.434;2022-08-21T13:15:36;99395.63;;;29.20;42.75
16664;BME280;8445;51.270;9.434;2022-08-21T13:18:06;99391.63;;;28.75;38.39
16664;BME280;8445;51.270;9.434;2022-08-21T13:20:38;99389.75;;;28.52;43.06
16664;BME280;8445;51.270;9.434;2022-08-21T13:23:29;99392.88;;;28.37;37.40
16664;BME280;8445;51.270;9.434;2022-08-21T13:25:57;99389.34;;;28.24;43.75
16664;BME280;8445;51.270;9.434;2022-08-21T13:28:34;99400.25;;;28.48;43.38
16664;BME280;8445;51.270;9.434;2022-08-21T13:31:09;99399.09;;;28.68;42.57
16664;BME280;8445;51.270;9.434;2022-08-21T13:33:40;99395.78;;;28.90;43.62
16664;BME280;8445;51.270;9.434;2022-08-21T13:36:42;99396.00;;;29.24;39.03
16664;BME280;8445;51.270;9.434;2022-08-21T13:39:15;99397.28;;;29.33;37.00
16664;BME280;8445;51.270;9.434;2022-08-21T13:41:48;99391.00;;;29.44;43.33
16664;BME280;8445;51.270;9.434;2022-08-21T13:44:22;99393.44;;;29.70;43.04
16664;BME280;8445;51.270;9.434;2022-08-21T13:46:53;99387.75;;;29.88;43.11
16664;BME280;8445;51.270;9.434;2022-08-21T13:49:37;99390.06;;;30.09;42.88
16664;BME280;8445;51.270;9.434;2022-08-21T13:52:15;99389.44;;;30.19;41.66
16664;BME280;8445;51.270;9.434;2022-08-21T13:54:42;99392.06;;;30.13;42.74
16664;BME280;8445;51.270;9.434;2022-08-21T13:57:24;99387.41;;;30.14;38.87
16664;BME280;8445;51.270;9.434;2022-08-21T13:59:50;99382.06;;;30.19;42.72
16664;BME280;8445;51.270;9.434;2022-08-21T14:02:23;99386.94;;;30.34;41.79
16664;BME280;8445;51.270;9.434;2022-08-21T14:05:00;99386.88;;;30.46;36.79
16664;BME280;8445;51.270;9.434;2022-08-21T14:07:39;99379.19;;;30.43;39.72
16664;BME280;8445;51.270;9.434;2022-08-21T14:10:21;99378.34;;;30.42;39.45
16664;BME280;8445;51.270;9.434;2022-08-21T14:12:53;99377.28;;;30.26;40.72
16664;BME280;8445;51.270;9.434;2022-08-21T14:15:26;99379.19;;;30.26;41.16
16664;BME280;8445;51.270;9.434;2022-08-21T14:17:57;99376.47;;;30.26;41.20
16664;BME280;8445;51.270;9.434;2022-08-21T14:20:35;99376.91;;;30.06;40.32
16664;BME280;8445;51.270;9.434;2022-08-21T14:23:02;99366.00;;;30.06;41.04
16664;BME280;8445;51.270;9.434;2022-08-21T14:25:43;99367.41;;;30.08;40.31
16664;BME280;8445;51.270;9.434;2022-08-21T14:28:26;99363.78;;;30.02;36.47
16664;BME280;8445;51.270;9.434;2022-08-21T14:30:56;99374.09;;;29.71;40.40